sensor_id;sensor_type;location;lat;lon;timestamp;P1;durP1;ratioP1;P2;durP2;ratioP2
22388;SDS011;11362;48.102;11.620;2023-06-19T00:00:12;7.47;;;6.73;;
22388;SDS011;11362;48.102;11.620;2023-06-19T00:02:39;7.80;;;7.20;;
22388;SDS011;11362;48.102;11.620;2023-06-19T00:05:05;7.40;;;6.73;;
22388;SDS011;11362;48.102;11.620;2023-06-19T00:07:31;7.67;;;6.97;;
22388;SDS011;11362;48.102;11.620;2023-06-19T00:09:56;8.27;;;7.57;;
22388;SDS011;11362;48.102;11.620;2023-06-19T00:12:22;8.53;;;7.30;;
22388;SDS011;11362;48.102;11.620;2023-06-19T00:14:47;8.27;;;7.57;;
22388;SDS011;11362;48.102;11.620;2023-06-19T00:17:12;7.33;;;6.73;;
22388;SDS011;11362;48.102;11.620;2023-06-19T00:19:37;7.63;;;7.03;;
22388;SDS011;11362;48.102;11.620;2023-06-19T00:22:03;7.67;;;6.97;;
22388;SDS011;11362;48.102;11.620;2023-06-19T00:24:29;8.17;;;7.57;;
22388;SDS011;11362;48.102;11.620;2023-06-19T00:26:54;7.67;;;7.07;;
22388;SDS011;11362;48.102;11.620;2023-06-19T00:29:19;7.30;;;6.60;;
22388;SDS011;11362;48.102;11.620;2023-06-19T00:31:44;8.00;;;7.30;;
22388;SDS011;11362;48.102;11.620;2023-06-19T00:34:10;8.40;;;7.60;;
22388;SDS011;11362;48.102;11.620;2023-06-19T00:36:35;7.83;;;7.23;;
22388;SDS011;11362;48.102;11.620;2023-06-19T00:39:00;8.07;;;7.37;;
22388;SDS011;11362;48.102;11.620;2023-06-19T00:41:26;7.93;;;7.23;;
22388;SDS011;11362;48.102;11.620;2023-06-19T00:43:52;7.13;;;6.63;;
22388;SDS011;11362;48.102;11.620;2023-06-19T00:46:17;8.13;;;7.33;;
22388;SDS011;11362;48.102;11.620;2023-06-19T00:48:43;8.17;;;7.37;;
22388;SDS011;11362;48.102;11.620;2023-06-19T00:51:08;7.70;;;7.10;;
22388;SDS011;11362;48.102;11.620;2023-06-19T00:53:34;8.40;;;6.77;;
22388;SDS011;11362;48.102;11.620;2023-06-19T00:56:00;7.77;;;7.13;;
22388;SDS011;11362;48.102;11.620;2023-06-19T00:58:26;7.70;;;7.00;;
22388;SDS011;11362;48.102;11.620;2023-06-19T01:00:52;8.27;;;7.47;;
22388;SDS011;11362;48.102;11.620;2023-06-19T01:03:18;8.17;;;7.47;;
22388;SDS011;11362;48.102;11.620;2023-06-19T01:05:43;7.27;;;6.67;;
22388;SDS011;11362;48.102;11.620;2023-06-19T01:11:01;8.03;;;7.33;;
22388;SDS011;11362;48.102;11.620;2023-06-19T01:13:36;8.70;;;8.10;;
22388;SDS011;11362;48.102;11.620;2023-06-19T01:16:06;7.17;;;6.67;;
22388;SDS011;11362;48.102;11.620;2023-06-19T01:18:32;7.50;;;7.00;;
22388;SDS011;11362;48.102;11.620;2023-06-19T01:21:14;7.50;;;7.00;;
22388;SDS011;11362;48.102;11.620;2023-06-19T01:23:41;8.03;;;7.37;;
22388;SDS011;11362;48.102;11.620;2023-06-19T01:26:07;7.40;;;6.83;;
22388;SDS011;11362;48.102;11.620;2023-06-19T01:28:36;7.43;;;6.93;;
22388;SDS011;11362;48.102;11.620;2023-06-19T01:31:07;7.97;;;7.20;;
22388;SDS011;11362;48.102;11.620;2023-06-19T01:33:37;7.33;;;6.73;;
22388;SDS011;11362;48.102;11.620;2023-06-19T01:36:05;7.67;;;6.97;;
22388;SDS011;11362;48.102;11.620;2023-06-19T01:38:32;7.63;;;7.03;;
22388;SDS011;11362;48.102;11.620;2023-06-19T01:40:58;7.03;;;6.53;;
22388;SDS011;11362;48.102;11.620;2023-06-19T01:43:26;6.87;;;6.30;;
22388;SDS011;11362;48.102;11.620;2023-06-19T01:45:53;8.10;;;7.40;;
22388;SDS011;11362;48.102;11.620;2023-06-19T01:48:20;8.00;;;7.30;;
22388;SDS011;11362;48.102;11.620;2023-06-19T01:50:46;7.73;;;7.03;;
22388;SDS011;11362;48.102;11.620;2023-06-19T01:53:12;7.23;;;6.70;;
22388;SDS011;11362;48.102;11.620;2023-06-19T01:55:38;8.13;;;7.43;;
22388;SDS011;11362;48.102;11.620;2023-06-19T01:58:03;7.27;;;6.67;;
22388;SDS011;11362;48.102;11.620;2023-06-19T02:00:29;7.53;;;7.03;;
22388;SDS011;11362;48.102;11.620;2023-06-19T02:02:54;7.93;;;7.20;;
22388;SDS011;11362;48.102;11.620;2023-06-19T02:05:19;7.70;;;7.07;;
22388;SDS011;11362;48.102;11.620;2023-06-19T02:07:46;8.13;;;7.43;;
22388;SDS011;11362;48.102;11.620;2023-06-19T02:10:12;7.13;;;6.63;;
22388;SDS011;11362;48.102;11.620;2023-06-19T02:12:37;7.77;;;7.07;;
22388;SDS011;11362;48.102;11.620;2023-06-19T02:15:02;7.77;;;7.10;;
22388;SDS011;11362;48.102;11.620;2023-06-19T02:17:28;8.33;;;7.53;;
22388;SDS011;11362;48.102;11.620;2023-06-19T02:19:53;8.70;;;7.40;;
22388;SDS011;11362;48.102;11.620;2023-06-19T02:22:19;7.70;;;7.10;;
22388;SDS011;11362;48.102;11.620;2023-06-19T02:24:44;7.10;;;6.50;;
22388;SDS011;11362;48.102;11.620;2023-06-19T02:27:09;8.10;;;7.50;;
22388;SDS011;11362;48.102;11.620;2023-06-19T02:29:34;7.87;;;7.20;;
22388;SDS011;11362;48.102;11.620;2023-06-19T02:32:00;7.10;;;6.60;;
22388;SDS011;11362;48.102;11.620;2023-06-19T02:34:26;6.87;;;6.27;;
22388;SDS011;11362;48.102;11.620;2023-06-19T02:36:51;7.20;;;6.70;;
22388;SDS011;11362;48.102;11.620;2023-06-19T02:39:16;7.47;;;6.87;;
22388;SDS011;11362;48.102;11.620;2023-06-19T02:41:42;7.43;;;6.80;;
22388;SDS011;11362;48.102;11.620;2023-06-19T02:44:07;7.33;;;6.70;;
22388;SDS011;11362;48.102;11.620;2023-06-19T02:46:32;7.07;;;6.47;;
22388;SDS011;11362;48.102;11.620;2023-06-19T02:48:58;8.10;;;7.40;;
22388;SDS011;11362;48.102;11.620;2023-06-19T02:51:23;7.70;;;7.07;;
22388;SDS011;11362;48.102;11.620;2023-06-19T02:53:48;7.30;;;6.70;;
22388;SDS011;11362;48.102;11.620;2023-06-19T02:56:13;6.77;;;6.27;;
22388;SDS011;11362;48.102;11.620;2023-06-19T02:58:39;7.87;;;7.07;;
22388;SDS011;11362;48.102;11.620;2023-06-19T03:01:04;8.00;;;7.40;;
22388;SDS011;11362;48.102;11.620;2023-06-19T03:03:30;7.20;;;6.67;;
22388;SDS011;11362;48.102;11.620;2023-06-19T03:05:55;7.77;;;7.10;;
22388;SDS011;11362;48.102;11.620;2023-06-19T03:08:20;7.10;;;6.47;;
22388;SDS011;11362;48.102;11.620;2023-06-19T03:10:46;7.33;;;6.73;;
22388;SDS011;11362;48.102;11.620;2023-06-19T03:13:12;6.87;;;6.37;;
22388;SDS011;11362;48.102;11.620;2023-06-19T03:15:37;7.40;;;6.80;;
22388;SDS011;11362;48.102;11.620;2023-06-19T03:18:03;7.60;;;6.90;;
22388;SDS011;11362;48.102;11.620;2023-06-19T03:20:28;7.97;;;7.33;;
22388;SDS011;11362;48.102;11.620;2023-06-19T03:22:53;7.40;;;6.80;;
22388;SDS011;11362;48.102;11.620;2023-06-19T03:25:19;7.73;;;7.03;;
22388;SDS011;11362;48.102;11.620;2023-06-19T03:27:44;7.07;;;6.53;;
22388;SDS011;11362;48.102;11.620;2023-06-19T03:30:09;7.73;;;7.13;;
22388;SDS011;11362;48.102;11.620;2023-06-19T03:32:34;7.60;;;7.00;;
22388;SDS011;11362;48.102;11.620;2023-06-19T03:35:01;7.53;;;6.97;;
22388;SDS011;11362;48.102;11.620;2023-06-19T03:37:26;8.00;;;7.40;;
22388;SDS011;11362;48.102;11.620;2023-06-19T03:39:52;8.00;;;7.40;;
22388;SDS011;11362;48.102;11.620;2023-06-19T03:42:17;8.53;;;7.83;;
22388;SDS011;11362;48.102;11.620;2023-06-19T03:44:42;7.53;;;6.63;;
22388;SDS011;11362;48.102;11.620;2023-06-19T03:47:07;7.60;;;7.00;;
22388;SDS011;11362;48.102;11.620;2023-06-19T03:49:33;8.50;;;7.70;;
22388;SDS011;11362;48.102;11.620;2023-06-19T03:51:58;9.03;;;7.23;;
22388;SDS011;11362;48.102;11.620;2023-06-19T03:54:23;7.60;;;7.00;;
22388;SDS011;11362;48.102;11.620;2023-06-19T03:56:49;7.90;;;7.13;;
22388;SDS011;11362;48.102;11.620;2023-06-19T03:59:14;7.83;;;7.07;;
22388;SDS011;11362;48.102;11.620;2023-06-19T04:01:39;8.07;;;7.23;;
22388;SDS011;11362;48.102;11.620;2023-06-19T04:04:05;7.83;;;7.13;;
22388;SDS011;11362;48.102;11.620;2023-06-19T04:06:30;8.17;;;7.47;;
22388;SDS011;11362;48.102;11.620;2023-06-19T04:08:55;7.23;;;6.63;;
22388;SDS011;11362;48.102;11.620;2023-06-19T04:11:20;8.33;;;7.53;;
22388;SDS011;11362;48.102;11.620;2023-06-19T04:13:46;7.63;;;7.03;;
22388;SDS011;11362;48.102;11.620;2023-06-19T04:16:12;7.27;;;6.77;;
22388;SDS011;11362;48.102;11.620;2023-06-19T04:18:37;8.13;;;7.37;;
22388;SDS011;11362;48.102;11.620;2023-06-19T04:21:03;8.13;;;7.27;;
22388;SDS011;11362;48.102;11.620;2023-06-19T04:23:28;7.27;;;6.67;;
22388;SDS011;11362;48.102;11.620;2023-06-19T04:25:53;7.53;;;7.00;;
22388;SDS011;11362;48.102;11.620;2023-06-19T04:28:19;7.90;;;6.80;;
22388;SDS011;11362;48.102;11.620;2023-06-19T04:30:44;7.93;;;7.23;;
22388;SDS011;11362;48.102;11.620;2023-06-19T04:33:09;7.60;;;7.00;;
22388;SDS011;11362;48.102;11.620;2023-06-19T04:35:34;7.67;;;6.93;;
22388;SDS011;11362;48.102;11.620;2023-06-19T04:38:00;7.80;;;7.13;;
22388;SDS011;11362;48.102;11.620;2023-06-19T04:40:25;7.53;;;6.93;;
22388;SDS011;11362;48.102;11.620;2023-06-19T04:42:51;8.00;;;7.30;;
22388;SDS011;11362;48.102;11.620;2023-06-19T04:45:16;7.67;;;7.07;;
22388;SDS011;11362;48.102;11.620;2023-06-19T04:47:41;8.17;;;7.40;;
22388;SDS011;11362;48.102;11.620;2023-06-19T04:50:07;8.40;;;7.57;;
22388;SDS011;11362;48.102;11.620;2023-06-19T04:52:32;7.03;;;6.47;;
22388;SDS011;11362;48.102;11.620;2023-06-19T04:54:58;7.43;;;6.83;;
22388;SDS011;11362;48.102;11.620;2023-06-19T04:57:23;7.50;;;6.87;;
22388;SDS011;11362;48.102;11.620;2023-06-19T04:59:48;7.50;;;6.90;;
22388;SDS011;11362;48.102;11.620;2023-06-19T05:02:14;8.70;;;6.90;;
22388;SDS011;11362;48.102;11.620;2023-06-19T05:04:39;8.60;;;7.33;;
22388;SDS011;11362;48.102;11.620;2023-06-19T05:07:04;8.43;;;7.03;;
22388;SDS011;11362;48.102;11.620;2023-06-19T05:09:30;12.23;;;7.03;;
22388;SDS011;11362;48.102;11.620;2023-06-19T05:11:56;8.03;;;7.23;;
22388;SDS011;11362;48.102;11.620;2023-06-19T05:14:22;9.33;;;8.33;;
22388;SDS011;11362;48.102;11.620;2023-06-19T05:16:47;8.67;;;7.83;;
22388;SDS011;11362;48.102;11.620;2023-06-19T05:19:12;11.60;;;7.60;;
22388;SDS011;11362;48.102;11.620;2023-06-19T05:21:38;13.97;;;8.37;;
22388;SDS011;11362;48.102;11.620;2023-06-19T05:24:03;10.30;;;8.40;;
22388;SDS011;11362;48.102;11.620;2023-06-19T05:26:28;9.30;;;7.97;;
22388;SDS011;11362;48.102;11.620;2023-06-19T05:28:54;8.77;;;7.40;;
22388;SDS011;11362;48.102;11.620;2023-06-19T05:31:19;11.93;;;8.47;;
22388;SDS011;11362;48.102;11.620;2023-06-19T05:33:45;11.40;;;8.10;;
22388;SDS011;11362;48.102;11.620;2023-06-19T05:36:10;8.57;;;7.60;;
22388;SDS011;11362;48.102;11.620;2023-06-19T05:38:35;8.67;;;7.77;;
22388;SDS011;11362;48.102;11.620;2023-06-19T05:41:01;11.60;;;7.80;;
22388;SDS011;11362;48.102;11.620;2023-06-19T05:43:28;15.20;;;9.10;;
22388;SDS011;11362;48.102;11.620;2023-06-19T05:45:53;8.73;;;7.93;;
22388;SDS011;11362;48.102;11.620;2023-06-19T05:48:19;11.60;;;7.60;;
22388;SDS011;11362;48.102;11.620;2023-06-19T05:50:44;10.07;;;7.63;;
22388;SDS011;11362;48.102;11.620;2023-06-19T05:53:09;15.67;;;8.80;;
22388;SDS011;11362;48.102;11.620;2023-06-19T05:55:35;19.37;;;9.03;;
22388;SDS011;11362;48.102;11.620;2023-06-19T05:58:01;11.80;;;8.00;;
22388;SDS011;11362;48.102;11.620;2023-06-19T06:00:27;13.93;;;8.73;;
22388;SDS011;11362;48.102;11.620;2023-06-19T06:02:52;10.37;;;7.97;;
22388;SDS011;11362;48.102;11.620;2023-06-19T06:05:18;11.73;;;7.83;;
22388;SDS011;11362;48.102;11.620;2023-06-19T06:07:43;13.93;;;7.30;;
22388;SDS011;11362;48.102;11.620;2023-06-19T06:10:09;16.10;;;7.73;;
22388;SDS011;11362;48.102;11.620;2023-06-19T06:12:34;12.77;;;7.17;;
22388;SDS011;11362;48.102;11.620;2023-06-19T06:15:00;17.47;;;8.23;;
22388;SDS011;11362;48.102;11.620;2023-06-19T06:17:26;10.53;;;7.70;;
22388;SDS011;11362;48.102;11.620;2023-06-19T06:19:52;10.57;;;7.73;;
22388;SDS011;11362;48.102;11.620;2023-06-19T06:22:17;16.17;;;7.73;;
22388;SDS011;11362;48.102;11.620;2023-06-19T06:24:42;13.50;;;8.23;;
22388;SDS011;11362;48.102;11.620;2023-06-19T06:27:07;9.67;;;7.37;;
22388;SDS011;11362;48.102;11.620;2023-06-19T06:29:33;9.53;;;7.37;;
22388;SDS011;11362;48.102;11.620;2023-06-19T06:32:05;12.30;;;7.50;;
22388;SDS011;11362;48.102;11.620;2023-06-19T06:34:31;12.87;;;7.40;;
22388;SDS011;11362;48.102;11.620;2023-06-19T06:36:57;14.90;;;7.43;;
22388;SDS011;11362;48.102;11.620;2023-06-19T06:39:23;11.10;;;7.90;;
22388;SDS011;11362;48.102;11.620;2023-06-19T06:41:49;8.60;;;7.70;;
22388;SDS011;11362;48.102;11.620;2023-06-19T06:44:14;10.10;;;7.27;;
22388;SDS011;11362;48.102;11.620;2023-06-19T06:46:39;11.60;;;7.67;;
22388;SDS011;11362;48.102;11.620;2023-06-19T06:49:04;11.90;;;7.77;;
22388;SDS011;11362;48.102;11.620;2023-06-19T06:51:30;10.40;;;7.10;;
22388;SDS011;11362;48.102;11.620;2023-06-19T06:53:55;8.43;;;7.63;;
22388;SDS011;11362;48.102;11.620;2023-06-19T06:56:20;8.57;;;7.63;;
22388;SDS011;11362;48.102;11.620;2023-06-19T06:58:46;8.87;;;7.37;;
22388;SDS011;11362;48.102;11.620;2023-06-19T07:01:11;7.83;;;7.07;;
22388;SDS011;11362;48.102;11.620;2023-06-19T07:03:36;14.27;;;7.07;;
22388;SDS011;11362;48.102;11.620;2023-06-19T07:06:01;7.80;;;7.10;;
22388;SDS011;11362;48.102;11.620;2023-06-19T07:08:27;7.53;;;6.83;;
22388;SDS011;11362;48.102;11.620;2023-06-19T07:10:52;7.37;;;6.60;;
22388;SDS011;11362;48.102;11.620;2023-06-19T07:13:17;8.70;;;6.73;;
22388;SDS011;11362;48.102;11.620;2023-06-19T07:15:43;8.17;;;6.83;;
22388;SDS011;11362;48.102;11.620;2023-06-19T07:18:08;7.43;;;6.70;;
22388;SDS011;11362;48.102;11.620;2023-06-19T07:20:34;7.57;;;6.80;;
22388;SDS011;11362;48.102;11.620;2023-06-19T07:22:59;6.37;;;5.83;;
22388;SDS011;11362;48.102;11.620;2023-06-19T07:25:24;6.47;;;5.87;;
22388;SDS011;11362;48.102;11.620;2023-06-19T07:27:49;7.00;;;6.47;;
22388;SDS011;11362;48.102;11.620;2023-06-19T07:30:16;7.13;;;6.53;;
22388;SDS011;11362;48.102;11.620;2023-06-19T07:32:41;6.77;;;6.07;;
22388;SDS011;11362;48.102;11.620;2023-06-19T07:35:07;6.30;;;5.77;;
22388;SDS011;11362;48.102;11.620;2023-06-19T07:37:32;6.27;;;5.77;;
22388;SDS011;11362;48.102;11.620;2023-06-19T07:39:58;6.30;;;5.80;;
22388;SDS011;11362;48.102;11.620;2023-06-19T07:42:23;8.87;;;5.60;;
22388;SDS011;11362;48.102;11.620;2023-06-19T07:44:48;5.93;;;5.33;;
22388;SDS011;11362;48.102;11.620;2023-06-19T07:47:14;5.83;;;5.33;;
22388;SDS011;11362;48.102;11.620;2023-06-19T07:49:40;6.40;;;5.80;;
22388;SDS011;11362;48.102;11.620;2023-06-19T07:52:06;6.03;;;5.47;;
22388;SDS011;11362;48.102;11.620;2023-06-19T07:54:33;6.00;;;5.50;;
22388;SDS011;11362;48.102;11.620;2023-06-19T07:56:59;5.73;;;4.97;;
22388;SDS011;11362;48.102;11.620;2023-06-19T07:59:24;5.80;;;5.40;;
22388;SDS011;11362;48.102;11.620;2023-06-19T08:01:50;5.30;;;4.80;;
22388;SDS011;11362;48.102;11.620;2023-06-19T08:04:15;4.70;;;4.40;;
22388;SDS011;11362;48.102;11.620;2023-06-19T08:06:40;4.40;;;4.10;;
22388;SDS011;11362;48.102;11.620;2023-06-19T08:09:06;4.97;;;4.43;;
22388;SDS011;11362;48.102;11.620;2023-06-19T08:11:31;4.40;;;4.10;;
22388;SDS011;11362;48.102;11.620;2023-06-19T08:13:56;4.27;;;3.97;;
22388;SDS011;11362;48.102;11.620;2023-06-19T08:16:22;4.30;;;4.07;;
22388;SDS011;11362;48.102;11.620;2023-06-19T08:18:49;4.37;;;4.07;;
22388;SDS011;11362;48.102;11.620;2023-06-19T08:21:14;4.37;;;4.07;;
22388;SDS011;11362;48.102;11.620;2023-06-19T08:23:40;4.37;;;4.07;;
22388;SDS011;11362;48.102;11.620;2023-06-19T08:26:05;4.40;;;4.10;;
22388;SDS011;11362;48.102;11.620;2023-06-19T08:28:31;4.70;;;4.23;;
22388;SDS011;11362;48.102;11.620;2023-06-19T08:30:57;4.73;;;4.20;;
22388;SDS011;11362;48.102;11.620;2023-06-19T08:33:22;4.87;;;4.47;;
22388;SDS011;11362;48.102;11.620;2023-06-19T08:35:47;4.60;;;4.20;;
22388;SDS011;11362;48.102;11.620;2023-06-19T08:38:13;4.63;;;4.33;;
22388;SDS011;11362;48.102;11.620;2023-06-19T08:40:38;4.57;;;4.27;;
22388;SDS011;11362;48.102;11.620;2023-06-19T08:43:03;5.23;;;3.83;;
22388;SDS011;11362;48.102;11.620;2023-06-19T08:45:28;4.73;;;4.37;;
22388;SDS011;11362;48.102;11.620;2023-06-19T08:48:00;4.67;;;4.30;;
22388;SDS011;11362;48.102;11.620;2023-06-19T08:50:27;4.57;;;4.27;;
22388;SDS011;11362;48.102;11.620;2023-06-19T08:52:52;4.50;;;4.20;;
22388;SDS011;11362;48.102;11.620;2023-06-19T08:55:17;4.50;;;4.07;;
22388;SDS011;11362;48.102;11.620;2023-06-19T08:57:43;3.93;;;3.67;;
22388;SDS011;11362;48.102;11.620;2023-06-19T09:00:08;4.80;;;4.43;;
22388;SDS011;11362;48.102;11.620;2023-06-19T09:02:37;5.13;;;4.43;;
22388;SDS011;11362;48.102;11.620;2023-06-19T09:05:17;4.40;;;4.00;;
22388;SDS011;11362;48.102;11.620;2023-06-19T09:07:44;4.33;;;4.07;;
22388;SDS011;11362;48.102;11.620;2023-06-19T09:10:18;4.17;;;3.90;;
22388;SDS011;11362;48.102;11.620;2023-06-19T09:12:55;4.70;;;4.30;;
22388;SDS011;11362;48.102;11.620;2023-06-19T09:15:22;4.40;;;4.10;;
22388;SDS011;11362;48.102;11.620;2023-06-19T09:17:47;4.57;;;4.27;;
22388;SDS011;11362;48.102;11.620;2023-06-19T09:20:12;4.43;;;4.03;;
22388;SDS011;11362;48.102;11.620;2023-06-19T09:22:37;4.87;;;4.47;;
22388;SDS011;11362;48.102;11.620;2023-06-19T09:25:03;4.40;;;4.10;;
22388;SDS011;11362;48.102;11.620;2023-06-19T09:27:32;4.40;;;3.97;;
22388;SDS011;11362;48.102;11.620;2023-06-19T09:29:58;4.00;;;3.77;;
22388;SDS011;11362;48.102;11.620;2023-06-19T09:32:24;3.93;;;3.70;;
22388;SDS011;11362;48.102;11.620;2023-06-19T09:34:51;3.93;;;3.63;;
22388;SDS011;11362;48.102;11.620;2023-06-19T09:37:25;3.80;;;3.50;;
22388;SDS011;11362;48.102;11.620;2023-06-19T09:39:52;4.40;;;4.10;;
22388;SDS011;11362;48.102;11.620;2023-06-19T09:42:20;4.47;;;4.07;;
22388;SDS011;11362;48.102;11.620;2023-06-19T09:44:58;3.93;;;3.70;;
22388;SDS011;11362;48.102;11.620;2023-06-19T09:47:25;3.87;;;3.67;;
22388;SDS011;11362;48.102;11.620;2023-06-19T09:49:55;4.00;;;3.73;;
22388;SDS011;11362;48.102;11.620;2023-06-19T09:52:21;3.90;;;3.60;;
22388;SDS011;11362;48.102;11.620;2023-06-19T09:54:51;3.60;;;3.40;;
22388;SDS011;11362;48.102;11.620;2023-06-19T09:57:18;3.53;;;3.23;;
22388;SDS011;11362;48.102;11.620;2023-06-19T09:59:43;3.87;;;3.63;;
22388;SDS011;11362;48.102;11.620;2023-06-19T10:02:12;3.87;;;3.20;;
22388;SDS011;11362;48.102;11.620;2023-06-19T10:04:42;3.67;;;3.33;;
22388;SDS011;11362;48.102;11.620;2023-06-19T10:07:14;3.53;;;3.33;;
22388;SDS011;11362;48.102;11.620;2023-06-19T10:12:37;3.80;;;3.50;;
22388;SDS011;11362;48.102;11.620;2023-06-19T10:15:11;3.80;;;3.50;;
22388;SDS011;11362;48.102;11.620;2023-06-19T10:17:42;3.70;;;3.40;;
22388;SDS011;11362;48.102;11.620;2023-06-19T10:20:19;3.47;;;3.27;;
22388;SDS011;11362;48.102;11.620;2023-06-19T10:22:52;3.27;;;3.07;;
22388;SDS011;11362;48.102;11.620;2023-06-19T10:25:22;3.00;;;2.90;;
22388;SDS011;11362;48.102;11.620;2023-06-19T10:27:48;3.50;;;3.30;;
22388;SDS011;11362;48.102;11.620;2023-06-19T10:30:16;4.60;;;3.73;;
22388;SDS011;11362;48.102;11.620;2023-06-19T10:32:42;3.20;;;3.00;;
22388;SDS011;11362;48.102;11.620;2023-06-19T10:35:11;3.97;;;3.67;;
22388;SDS011;11362;48.102;11.620;2023-06-19T10:37:36;3.90;;;3.60;;
22388;SDS011;11362;48.102;11.620;2023-06-19T10:40:02;4.07;;;3.77;;
22388;SDS011;11362;48.102;11.620;2023-06-19T10:42:27;3.53;;;3.23;;
22388;SDS011;11362;48.102;11.620;2023-06-19T10:44:58;3.87;;;3.43;;
22388;SDS011;11362;48.102;11.620;2023-06-19T10:47:31;3.67;;;3.47;;
22388;SDS011;11362;48.102;11.620;2023-06-19T10:49:57;3.60;;;3.40;;
22388;SDS011;11362;48.102;11.620;2023-06-19T10:52:22;3.30;;;3.10;;
22388;SDS011;11362;48.102;11.620;2023-06-19T10:54:55;3.93;;;3.63;;
22388;SDS011;11362;48.102;11.620;2023-06-19T10:57:30;4.00;;;3.60;;
22388;SDS011;11362;48.102;11.620;2023-06-19T10:59:56;3.40;;;3.20;;
22388;SDS011;11362;48.102;11.620;2023-06-19T11:02:22;3.40;;;3.20;;
22388;SDS011;11362;48.102;11.620;2023-06-19T11:04:47;3.17;;;2.97;;
22388;SDS011;11362;48.102;11.620;2023-06-19T11:07:13;3.67;;;3.47;;
22388;SDS011;11362;48.102;11.620;2023-06-19T11:09:39;4.00;;;3.60;;
22388;SDS011;11362;48.102;11.620;2023-06-19T11:12:04;3.80;;;3.50;;
22388;SDS011;11362;48.102;11.620;2023-06-19T11:14:30;5.27;;;4.77;;
22388;SDS011;11362;48.102;11.620;2023-06-19T11:16:55;6.33;;;5.50;;
22388;SDS011;11362;48.102;11.620;2023-06-19T11:19:22;6.90;;;6.20;;
22388;SDS011;11362;48.102;11.620;2023-06-19T11:21:48;8.10;;;6.50;;
22388;SDS011;11362;48.102;11.620;2023-06-19T11:24:15;8.17;;;7.07;;
22388;SDS011;11362;48.102;11.620;2023-06-19T11:26:41;8.40;;;7.03;;
22388;SDS011;11362;48.102;11.620;2023-06-19T11:29:17;7.67;;;6.87;;
22388;SDS011;11362;48.102;11.620;2023-06-19T11:31:43;10.17;;;8.03;;
22388;SDS011;11362;48.102;11.620;2023-06-19T11:34:09;10.43;;;8.70;;
22388;SDS011;11362;48.102;11.620;2023-06-19T11:36:38;10.37;;;9.27;;
22388;SDS011;11362;48.102;11.620;2023-06-19T11:39:03;9.83;;;8.13;;
22388;SDS011;11362;48.102;11.620;2023-06-19T11:41:29;9.30;;;8.10;;
22388;SDS011;11362;48.102;11.620;2023-06-19T11:43:58;8.67;;;7.43;;
22388;SDS011;11362;48.102;11.620;2023-06-19T11:46:28;9.60;;;7.87;;
22388;SDS011;11362;48.102;11.620;2023-06-19T11:49:16;7.90;;;7.20;;
22388;SDS011;11362;48.102;11.620;2023-06-19T11:51:42;8.67;;;6.80;;
22388;SDS011;11362;48.102;11.620;2023-06-19T11:54:08;10.33;;;7.27;;
22388;SDS011;11362;48.102;11.620;2023-06-19T11:56:35;7.13;;;6.43;;
22388;SDS011;11362;48.102;11.620;2023-06-19T11:59:01;8.00;;;6.13;;
22388;SDS011;11362;48.102;11.620;2023-06-19T12:01:27;6.33;;;5.60;;
22388;SDS011;11362;48.102;11.620;2023-06-19T12:03:52;6.53;;;5.87;;
22388;SDS011;11362;48.102;11.620;2023-06-19T12:06:18;6.47;;;5.87;;
22388;SDS011;11362;48.102;11.620;2023-06-19T12:08:43;5.77;;;5.07;;
22388;SDS011;11362;48.102;11.620;2023-06-19T12:11:09;13.07;;;5.77;;
22388;SDS011;11362;48.102;11.620;2023-06-19T12:13:34;5.80;;;5.20;;
22388;SDS011;11362;48.102;11.620;2023-06-19T12:15:59;5.13;;;4.73;;
22388;SDS011;11362;48.102;11.620;2023-06-19T12:18:25;5.77;;;5.10;;
22388;SDS011;11362;48.102;11.620;2023-06-19T12:20:50;5.73;;;5.13;;
22388;SDS011;11362;48.102;11.620;2023-06-19T12:23:15;6.63;;;5.33;;
22388;SDS011;11362;48.102;11.620;2023-06-19T12:25:40;5.70;;;4.93;;
22388;SDS011;11362;48.102;11.620;2023-06-19T12:28:06;4.60;;;4.20;;
22388;SDS011;11362;48.102;11.620;2023-06-19T12:30:31;4.93;;;4.53;;
22388;SDS011;11362;48.102;11.620;2023-06-19T12:32:56;6.40;;;4.70;;
22388;SDS011;11362;48.102;11.620;2023-06-19T12:35:22;4.50;;;3.83;;
22388;SDS011;11362;48.102;11.620;2023-06-19T12:37:47;5.30;;;4.83;;
22388;SDS011;11362;48.102;11.620;2023-06-19T12:40:12;4.67;;;4.17;;
22388;SDS011;11362;48.102;11.620;2023-06-19T12:42:38;4.80;;;4.40;;
22388;SDS011;11362;48.102;11.620;2023-06-19T12:45:03;4.00;;;3.53;;
22388;SDS011;11362;48.102;11.620;2023-06-19T12:47:29;4.80;;;4.30;;
22388;SDS011;11362;48.102;11.620;2023-06-19T12:49:54;4.17;;;3.83;;
22388;SDS011;11362;48.102;11.620;2023-06-19T12:52:19;4.53;;;4.07;;
22388;SDS011;11362;48.102;11.620;2023-06-19T12:54:44;4.53;;;4.13;;
22388;SDS011;11362;48.102;11.620;2023-06-19T12:57:10;4.30;;;3.90;;
22388;SDS011;11362;48.102;11.620;2023-06-19T12:59:35;5.23;;;4.10;;
22388;SDS011;11362;48.102;11.620;2023-06-19T13:02:00;4.97;;;4.37;;
22388;SDS011;11362;48.102;11.620;2023-06-19T13:04:25;4.43;;;4.03;;
22388;SDS011;11362;48.102;11.620;2023-06-19T13:06:51;5.83;;;3.63;;
22388;SDS011;11362;48.102;11.620;2023-06-19T13:09:16;10.80;;;4.40;;
22388;SDS011;11362;48.102;11.620;2023-06-19T13:11:41;5.77;;;3.77;;
22388;SDS011;11362;48.102;11.620;2023-06-19T13:14:07;4.30;;;3.90;;
22388;SDS011;11362;48.102;11.620;2023-06-19T13:16:32;7.90;;;4.30;;
22388;SDS011;11362;48.102;11.620;2023-06-19T13:18:57;5.70;;;3.97;;
22388;SDS011;11362;48.102;11.620;2023-06-19T13:21:22;5.17;;;3.43;;
22388;SDS011;11362;48.102;11.620;2023-06-19T13:23:48;3.50;;;3.30;;
22388;SDS011;11362;48.102;11.620;2023-06-19T13:26:13;4.07;;;3.77;;
22388;SDS011;11362;48.102;11.620;2023-06-19T13:28:38;4.33;;;3.83;;
22388;SDS011;11362;48.102;11.620;2023-06-19T13:31:04;4.03;;;3.77;;
22388;SDS011;11362;48.102;11.620;2023-06-19T13:33:29;6.70;;;3.90;;
22388;SDS011;11362;48.102;11.620;2023-06-19T13:35:54;4.73;;;3.70;;
22388;SDS011;11362;48.102;11.620;2023-06-19T13:38:20;5.63;;;3.57;;
22388;SDS011;11362;48.102;11.620;2023-06-19T13:40:45;3.90;;;3.70;;
22388;SDS011;11362;48.102;11.620;2023-06-19T13:43:10;3.70;;;3.40;;
22388;SDS011;11362;48.102;11.620;2023-06-19T13:45:36;4.13;;;3.73;;
22388;SDS011;11362;48.102;11.620;2023-06-19T13:48:01;6.33;;;4.00;;
22388;SDS011;11362;48.102;11.620;2023-06-19T13:50:27;3.63;;;3.33;;
22388;SDS011;11362;48.102;11.620;2023-06-19T13:52:52;4.27;;;3.97;;
22388;SDS011;11362;48.102;11.620;2023-06-19T13:55:18;4.00;;;3.70;;
22388;SDS011;11362;48.102;11.620;2023-06-19T13:57:43;3.70;;;3.27;;
22388;SDS011;11362;48.102;11.620;2023-06-19T14:00:09;4.03;;;3.70;;
22388;SDS011;11362;48.102;11.620;2023-06-19T14:02:36;5.23;;;3.67;;
22388;SDS011;11362;48.102;11.620;2023-06-19T14:05:02;3.90;;;3.50;;
22388;SDS011;11362;48.102;11.620;2023-06-19T14:07:29;3.23;;;3.03;;
22388;SDS011;11362;48.102;11.620;2023-06-19T14:09:54;3.33;;;3.13;;
22388;SDS011;11362;48.102;11.620;2023-06-19T14:12:20;3.57;;;3.27;;
22388;SDS011;11362;48.102;11.620;2023-06-19T14:14:45;3.83;;;3.50;;
22388;SDS011;11362;48.102;11.620;2023-06-19T14:17:10;3.53;;;3.33;;
22388;SDS011;11362;48.102;11.620;2023-06-19T14:19:35;4.23;;;3.83;;
22388;SDS011;11362;48.102;11.620;2023-06-19T14:22:01;3.73;;;3.50;;
22388;SDS011;11362;48.102;11.620;2023-06-19T14:24:26;3.27;;;3.07;;
22388;SDS011;11362;48.102;11.620;2023-06-19T14:26:51;3.57;;;3.37;;
22388;SDS011;11362;48.102;11.620;2023-06-19T14:29:16;3.50;;;3.30;;
22388;SDS011;11362;48.102;11.620;2023-06-19T14:31:42;3.63;;;3.43;;